sensor_id;sensor_type;location;lat;lon;timestamp;pressure;altitude;pressure_sealevel;temperature;humidity
3598;BME280;1813;52.016;8.714;2023-05-21T00:02:25;-16261.94;;;-139.71;69.66
3598;BME280;1813;52.016;8.714;2023-05-21T00:04:59;-16261.94;;;-139.71;70.06
3598;BME280;1813;52.016;8.714;2023-05-21T00:07:36;-16261.94;;;-139.71;70.21
3598;BME280;1813;52.016;8.714;2023-05-21T00:10:10;-16261.94;;;-139.71;70.46
3598;BME280;1813;52.016;8.714;2023-05-21T00:12:44;-16261.94;;;-139.71;70.62
3598;BME280;1813;52.016;8.714;2023-05-21T00:15:17;-16261.94;;;-139.71;70.57
3598;BME280;1813;52.016;8.714;2023-05-21T00:17:54;-16261.94;;;-139.71;70.74
3598;BME280;1813;52.016;8.714;2023-05-21T00:20:28;-16261.94;;;-139.71;70.84
3598;BME280;1813;52.016;8.714;2023-05-21T00:23:05;-16261.94;;;-139.71;70.74
3598;BME280;1813;52.016;8.714;2023-05-21T00:25:40;-16261.94;;;-139.71;70.78
3598;BME280;1813;52.016;8.714;2023-05-21T00:28:13;-16261.94;;;-139.71;70.82
3598;BME280;1813;52.016;8.714;2023-05-21T00:30:47;-16261.94;;;-139.71;70.73
3598;BME280;1813;52.016;8.714;2023-05-21T00:33:21;-16261.94;;;-139.71;70.77
3598;BME280;1813;52.016;8.714;2023-05-21T00:35:56;-16261.94;;;-139.71;70.75
3598;BME280;1813;52.016;8.714;2023-05-21T00:38:32;-16261.94;;;-139.71;70.76
3598;BME280;1813;52.016;8.714;2023-05-21T00:41:07;-16261.94;;;-139.71;70.84
3598;BME280;1813;52.016;8.714;2023-05-21T00:43:42;-16261.94;;;-139.71;70.75
3598;BME280;1813;52.016;8.714;2023-05-21T00:46:18;-16261.94;;;-139.71;70.45
3598;BME280;1813;52.016;8.714;2023-05-21T00:48:52;-16261.94;;;-139.71;70.67
3598;BME280;1813;52.016;8.714;2023-05-21T00:51:28;-16261.94;;;-139.71;70.77
3598;BME280;1813;52.016;8.714;2023-05-21T00:54:05;-16261.94;;;-139.71;70.60
3598;BME280;1813;52.016;8.714;2023-05-21T00:56:40;-16261.94;;;-139.71;70.83
3598;BME280;1813;52.016;8.714;2023-05-21T00:59:15;-16261.94;;;-139.71;70.91
3598;BME280;1813;52.016;8.714;2023-05-21T01:01:49;-16261.94;;;-139.71;71.02
3598;BME280;1813;52.016;8.714;2023-05-21T01:04:26;-16261.94;;;-139.71;71.25
3598;BME280;1813;52.016;8.714;2023-05-21T01:06:59;-16261.94;;;-139.71;71.48
3598;BME280;1813;52.016;8.714;2023-05-21T01:09:36;-16261.94;;;-139.71;71.28
3598;BME280;1813;52.016;8.714;2023-05-21T01:12:10;-16261.94;;;-139.71;71.53
3598;BME280;1813;52.016;8.714;2023-05-21T01:14:45;-16261.94;;;-139.71;71.47
3598;BME280;1813;52.016;8.714;2023-05-21T01:17:20;-16261.94;;;-139.71;71.76
3598;BME280;1813;52.016;8.714;2023-05-21T01:19:54;-16261.94;;;-139.71;71.84
3598;BME280;1813;52.016;8.714;2023-05-21T01:22:31;-16261.94;;;-139.71;72.08
3598;BME280;1813;52.016;8.714;2023-05-21T01:25:12;-16261.94;;;-139.71;72.12
3598;BME280;1813;52.016;8.714;2023-05-21T01:27:45;-16261.94;;;-139.71;72.24
3598;BME280;1813;52.016;8.714;2023-05-21T01:30:21;-16261.94;;;-139.71;72.51
3598;BME280;1813;52.016;8.714;2023-05-21T01:33:01;-16261.94;;;-139.71;72.63
3598;BME280;1813;52.016;8.714;2023-05-21T01:35:40;-16261.94;;;-139.71;72.86
3598;BME280;1813;52.016;8.714;2023-05-21T01:38:19;-16261.94;;;-139.71;72.89
3598;BME280;1813;52.016;8.714;2023-05-21T01:41:02;-16261.94;;;-139.71;73.18
3598;BME280;1813;52.016;8.714;2023-05-21T01:43:38;-16261.94;;;-139.71;73.53
3598;BME280;1813;52.016;8.714;2023-05-21T01:46:16;-16261.94;;;-139.71;73.56
3598;BME280;1813;52.016;8.714;2023-05-21T01:48:54;-16261.94;;;-139.71;73.50
3598;BME280;1813;52.016;8.714;2023-05-21T01:51:29;-16261.94;;;-139.71;73.85
3598;BME280;1813;52.016;8.714;2023-05-21T01:54:03;-16261.94;;;-139.71;73.80
3598;BME280;1813;52.016;8.714;2023-05-21T01:56:39;-16261.94;;;-139.71;73.68
3598;BME280;1813;52.016;8.714;2023-05-21T01:59:13;-16261.94;;;-139.71;73.72
3598;BME280;1813;52.016;8.714;2023-05-21T02:01:47;-16261.94;;;-139.71;73.83
3598;BME280;1813;52.016;8.714;2023-05-21T02:04:21;-16261.94;;;-139.71;73.81
3598;BME280;1813;52.016;8.714;2023-05-21T02:06:55;-16261.94;;;-139.71;73.96
3598;BME280;1813;52.016;8.714;2023-05-21T02:09:29;-16261.94;;;-139.71;73.90
3598;BME280;1813;52.016;8.714;2023-05-21T02:12:06;-16261.94;;;-139.71;74.10
3598;BME280;1813;52.016;8.714;2023-05-21T02:14:40;-16261.94;;;-139.71;74.05
3598;BME280;1813;52.016;8.714;2023-05-21T02:17:16;-16261.94;;;-139.71;74.19
3598;BME280;1813;52.016;8.714;2023-05-21T02:19:51;-16261.94;;;-139.71;74.03
3598;BME280;1813;52.016;8.714;2023-05-21T02:22:25;-16261.94;;;-139.71;74.09
3598;BME280;1813;52.016;8.714;2023-05-21T02:24:59;-16261.94;;;-139.71;74.23
3598;BME280;1813;52.016;8.714;2023-05-21T02:27:36;-16261.94;;;-139.71;74.04
3598;BME280;1813;52.016;8.714;2023-05-21T02:30:11;-16261.94;;;-139.71;74.11
3598;BME280;1813;52.016;8.714;2023-05-21T02:32:47;-16261.94;;;-139.71;74.32
3598;BME280;1813;52.016;8.714;2023-05-21T02:35:21;-16261.94;;;-139.71;74.17
3598;BME280;1813;52.016;8.714;2023-05-21T02:37:54;-16261.94;;;-139.71;74.31
3598;BME280;1813;52.016;8.714;2023-05-21T02:40:28;-16261.94;;;-139.71;74.34
3598;BME280;1813;52.016;8.714;2023-05-21T02:43:05;-16261.94;;;-139.71;74.30
3598;BME280;1813;52.016;8.714;2023-05-21T02:45:40;-16261.94;;;-139.71;74.50
3598;BME280;1813;52.016;8.714;2023-05-21T02:48:14;-16261.94;;;-139.71;74.57
3598;BME280;1813;52.016;8.714;2023-05-21T02:50:48;-16261.94;;;-139.71;74.82
3598;BME280;1813;52.016;8.714;2023-05-21T02:53:22;-16261.94;;;-139.71;75.11
3598;BME280;1813;52.016;8.714;2023-05-21T02:55:55;-16261.94;;;-139.71;75.02
3598;BME280;1813;52.016;8.714;2023-05-21T02:58:32;-16261.94;;;-139.71;75.02
3598;BME280;1813;52.016;8.714;2023-05-21T03:01:06;-16261.94;;;-139.71;75.04
3598;BME280;1813;52.016;8.714;2023-05-21T03:03:39;-16261.94;;;-139.71;75.32
3598;BME280;1813;52.016;8.714;2023-05-21T03:06:13;-16261.94;;;-139.71;75.34
3598;BME280;1813;52.016;8.714;2023-05-21T03:08:49;-16261.94;;;-139.71;75.26
3598;BME280;1813;52.016;8.714;2023-05-21T03:11:23;-16261.94;;;-139.71;75.47
3598;BME280;1813;52.016;8.714;2023-05-21T03:13:59;-16261.94;;;-139.71;75.34
3598;BME280;1813;52.016;8.714;2023-05-21T03:16:33;-16261.94;;;-139.71;75.26
3598;BME280;1813;52.016;8.714;2023-05-21T03:19:07;-16261.94;;;-139.71;75.29
3598;BME280;1813;52.016;8.714;2023-05-21T03:21:41;-16261.94;;;-139.71;75.24
3598;BME280;1813;52.016;8.714;2023-05-21T03:24:16;-16261.94;;;-139.71;75.20
3598;BME280;1813;52.016;8.714;2023-05-21T03:26:50;-16261.94;;;-139.71;75.49
3598;BME280;1813;52.016;8.714;2023-05-21T03:29:27;-16261.94;;;-139.71;75.38
3598;BME280;1813;52.016;8.714;2023-05-21T03:32:01;-16261.94;;;-139.71;75.73
3598;BME280;1813;52.016;8.714;2023-05-21T03:34:36;-16261.94;;;-139.71;75.75
3598;BME280;1813;52.016;8.714;2023-05-21T03:37:10;-16261.94;;;-139.71;75.90
3598;BME280;1813;52.016;8.714;2023-05-21T03:39:44;-16261.94;;;-139.71;75.83
3598;BME280;1813;52.016;8.714;2023-05-21T03:42:18;-16261.94;;;-139.71;75.84
3598;BME280;1813;52.016;8.714;2023-05-21T03:44:58;-16261.94;;;-139.71;75.85
3598;BME280;1813;52.016;8.714;2023-05-21T03:47:55;-16261.94;;;-139.71;75.83
3598;BME280;1813;52.016;8.714;2023-05-21T03:50:29;-16261.94;;;-139.71;76.13
3598;BME280;1813;52.016;8.714;2023-05-21T03:53:02;-16261.94;;;-139.71;76.12
3598;BME280;1813;52.016;8.714;2023-05-21T03:55:37;-16261.94;;;-139.71;76.28
3598;BME280;1813;52.016;8.714;2023-05-21T03:58:11;-16261.94;;;-139.71;76.10
3598;BME280;1813;52.016;8.714;2023-05-21T04:00:47;-16261.94;;;-139.71;76.10
3598;BME280;1813;52.016;8.714;2023-05-21T04:03:21;-16261.94;;;-139.71;76.18
3598;BME280;1813;52.016;8.714;2023-05-21T04:05:55;-16261.94;;;-139.71;76.28
3598;BME280;1813;52.016;8.714;2023-05-21T04:08:29;-16261.94;;;-139.71;76.41
3598;BME280;1813;52.016;8.714;2023-05-21T04:11:03;-16261.94;;;-139.71;76.76
3598;BME280;1813;52.016;8.714;2023-05-21T04:13:37;-16261.94;;;-139.71;77.05
3598;BME280;1813;52.016;8.714;2023-05-21T04:16:14;-16261.94;;;-139.71;77.17
3598;BME280;1813;52.016;8.714;2023-05-21T04:18:49;-16261.94;;;-139.71;77.34
3598;BME280;1813;52.016;8.714;2023-05-21T04:21:25;-16261.94;;;-139.71;77.49
3598;BME280;1813;52.016;8.714;2023-05-21T04:23:59;-16261.94;;;-139.71;77.66
3598;BME280;1813;52.016;8.714;2023-05-21T04:26:59;-16261.94;;;-139.71;77.88
3598;BME280;1813;52.016;8.714;2023-05-21T04:29:35;-16261.94;;;-139.71;77.85
3598;BME280;1813;52.016;8.714;2023-05-21T04:32:15;-16261.94;;;-139.71;78.05
3598;BME280;1813;52.016;8.714;2023-05-21T04:34:50;-16261.94;;;-139.71;78.19
3598;BME280;1813;52.016;8.714;2023-05-21T04:37:24;-16261.94;;;-139.71;78.01
3598;BME280;1813;52.016;8.714;2023-05-21T04:39:59;-16261.94;;;-139.71;78.03
3598;BME280;1813;52.016;8.714;2023-05-21T04:42:34;-16261.94;;;-139.71;78.18
3598;BME280;1813;52.016;8.714;2023-05-21T04:45:09;-16261.94;;;-139.71;77.93
3598;BME280;1813;52.016;8.714;2023-05-21T04:47:49;-16261.94;;;-139.71;78.07
3598;BME280;1813;52.016;8.714;2023-05-21T04:50:22;-16261.94;;;-139.71;78.10
3598;BME280;1813;52.016;8.714;2023-05-21T04:52:56;-16261.94;;;-139.71;77.91
3598;BME280;1813;52.016;8.714;2023-05-21T04:55:31;-16261.94;;;-139.71;77.76
3598;BME280;1813;52.016;8.714;2023-05-21T04:58:09;-16261.94;;;-139.71;77.94
3598;BME280;1813;52.016;8.714;2023-05-21T05:00:43;-16261.94;;;-139.71;78.01
3598;BME280;1813;52.016;8.714;2023-05-21T05:03:22;-16261.94;;;-139.71;77.77
3598;BME280;1813;52.016;8.714;2023-05-21T05:05:56;-16261.94;;;-139.71;77.82
3598;BME280;1813;52.016;8.714;2023-05-21T05:08:31;-16261.94;;;-139.71;77.86
3598;BME280;1813;52.016;8.714;2023-05-21T05:11:04;-16261.94;;;-139.71;77.56
3598;BME280;1813;52.016;8.714;2023-05-21T05:13:39;-16261.94;;;-139.71;77.44
3598;BME280;1813;52.016;8.714;2023-05-21T05:16:13;-16261.94;;;-139.71;77.50
3598;BME280;1813;52.016;8.714;2023-05-21T05:18:50;-16261.94;;;-139.71;77.82
3598;BME280;1813;52.016;8.714;2023-05-21T05:21:26;-16261.94;;;-139.71;78.08
3598;BME280;1813;52.016;8.714;2023-05-21T05:24:00;-16261.94;;;-139.71;78.13
3598;BME280;1813;52.016;8.714;2023-05-21T05:26:36;-16261.94;;;-139.71;78.24
3598;BME280;1813;52.016;8.714;2023-05-21T05:29:09;-16261.94;;;-139.71;78.18
3598;BME280;1813;52.016;8.714;2023-05-21T05:31:43;-16261.94;;;-139.71;78.07
3598;BME280;1813;52.016;8.714;2023-05-21T05:34:21;-16261.94;;;-139.71;78.08
3598;BME280;1813;52.016;8.714;2023-05-21T05:36:55;-16261.94;;;-139.71;78.13
3598;BME280;1813;52.016;8.714;2023-05-21T05:39:29;-16261.94;;;-139.71;78.15
3598;BME280;1813;52.016;8.714;2023-05-21T05:42:04;-16261.94;;;-139.71;78.51
3598;BME280;1813;52.016;8.714;2023-05-21T05:44:38;-16261.94;;;-139.71;78.66
3598;BME280;1813;52.016;8.714;2023-05-21T05:47:12;-16261.94;;;-139.71;78.73
3598;BME280;1813;52.016;8.714;2023-05-21T05:49:48;-16261.94;;;-139.71;78.65
3598;BME280;1813;52.016;8.714;2023-05-21T05:52:22;-16261.94;;;-139.71;78.63
3598;BME280;1813;52.016;8.714;2023-05-21T05:54:56;-16261.94;;;-139.71;78.41
3598;BME280;1813;52.016;8.714;2023-05-21T05:57:30;-16261.94;;;-139.71;78.44
3598;BME280;1813;52.016;8.714;2023-05-21T06:00:10;-16261.94;;;-139.71;78.75
3598;BME280;1813;52.016;8.714;2023-05-21T06:02:46;-16261.94;;;-139.71;78.58
3598;BME280;1813;52.016;8.714;2023-05-21T06:05:24;-16261.94;;;-139.71;78.63
3598;BME280;1813;52.016;8.714;2023-05-21T06:07:57;-16261.94;;;-139.71;78.57
3598;BME280;1813;52.016;8.714;2023-05-21T06:10:32;-16261.94;;;-139.71;78.80
3598;BME280;1813;52.016;8.714;2023-05-21T06:13:05;-16261.94;;;-139.71;78.06
3598;BME280;1813;52.016;8.714;2023-05-21T06:15:39;-16261.94;;;-139.71;77.97
3598;BME280;1813;52.016;8.714;2023-05-21T06:18:14;-16261.94;;;-139.71;77.81
3598;BME280;1813;52.016;8.714;2023-05-21T06:20:51;-16261.94;;;-139.71;77.54
3598;BME280;1813;52.016;8.714;2023-05-21T06:23:27;-16261.94;;;-139.71;77.27
3598;BME280;1813;52.016;8.714;2023-05-21T06:26:02;-16261.94;;;-139.71;77.25
3598;BME280;1813;52.016;8.714;2023-05-21T06:28:36;-16261.94;;;-139.71;77.59
3598;BME280;1813;52.016;8.714;2023-05-21T06:31:12;-16261.94;;;-139.71;77.46
3598;BME280;1813;52.016;8.714;2023-05-21T06:33:47;-16261.94;;;-139.71;77.27
3598;BME280;1813;52.016;8.714;2023-05-21T06:36:25;-16261.94;;;-139.71;76.90
3598;BME280;1813;52.016;8.714;2023-05-21T06:39:02;-16261.94;;;-139.71;76.42
3598;BME280;1813;52.016;8.714;2023-05-21T06:41:36;-16261.94;;;-139.71;76.45
3598;BME280;1813;52.016;8.714;2023-05-21T06:44:28;-16261.94;;;-139.71;75.96
3598;BME280;1813;52.016;8.714;2023-05-21T06:47:17;-16261.94;;;-139.71;75.78
3598;BME280;1813;52.016;8.714;2023-05-21T06:49:51;-16261.94;;;-139.71;75.75
3598;BME280;1813;52.016;8.714;2023-05-21T06:52:28;-16261.94;;;-139.71;75.16
3598;BME280;1813;52.016;8.714;2023-05-21T06:55:02;-16261.94;;;-139.71;75.17
3598;BME280;1813;52.016;8.714;2023-05-21T06:57:56;-16261.94;;;-139.71;74.81
3598;BME280;1813;52.016;8.714;2023-05-21T07:00:30;-16261.94;;;-139.71;75.28
3598;BME280;1813;52.016;8.714;2023-05-21T07:03:04;-16261.94;;;-139.71;75.31
3598;BME280;1813;52.016;8.714;2023-05-21T07:05:38;-16261.94;;;-139.71;75.46
3598;BME280;1813;52.016;8.714;2023-05-21T07:08:14;-16261.94;;;-139.71;74.72
3598;BME280;1813;52.016;8.714;2023-05-21T07:10:49;-16261.94;;;-139.71;74.99
3598;BME280;1813;52.016;8.714;2023-05-21T07:13:23;-16261.94;;;-139.71;75.86
3598;BME280;1813;52.016;8.714;2023-05-21T07:15:57;-16261.94;;;-139.71;75.88
3598;BME280;1813;52.016;8.714;2023-05-21T07:18:31;-16261.94;;;-139.71;75.98
3598;BME280;1813;52.016;8.714;2023-05-21T07:21:05;-16261.94;;;-139.71;75.26
3598;BME280;1813;52.016;8.714;2023-05-21T07:23:42;-16261.94;;;-139.71;75.01
3598;BME280;1813;52.016;8.714;2023-05-21T07:26:16;-16261.94;;;-139.71;74.55
3598;BME280;1813;52.016;8.714;2023-05-21T07:28:51;-16261.94;;;-139.71;73.96
3598;BME280;1813;52.016;8.714;2023-05-21T07:31:24;-16261.94;;;-139.71;73.26
3598;BME280;1813;52.016;8.714;2023-05-21T07:33:59;-16261.94;;;-139.71;73.06
3598;BME280;1813;52.016;8.714;2023-05-21T07:36:35;-16261.94;;;-139.71;72.52
3598;BME280;1813;52.016;8.714;2023-05-21T07:39:13;-16261.94;;;-139.71;72.57
3598;BME280;1813;52.016;8.714;2023-05-21T07:41:47;-16261.94;;;-139.71;72.36
3598;BME280;1813;52.016;8.714;2023-05-21T07:44:21;-16261.94;;;-139.71;72.02
3598;BME280;1813;52.016;8.714;2023-05-21T07:46:55;-16261.94;;;-139.71;71.69
3598;BME280;1813;52.016;8.714;2023-05-21T07:49:29;-16261.94;;;-139.71;71.22
3598;BME280;1813;52.016;8.714;2023-05-21T07:52:04;-16261.94;;;-139.71;70.80
3598;BME280;1813;52.016;8.714;2023-05-21T07:54:41;-16261.94;;;-139.71;70.95
3598;BME280;1813;52.016;8.714;2023-05-21T07:57:15;-16261.94;;;-139.71;70.46
3598;BME280;1813;52.016;8.714;2023-05-21T07:59:58;-16261.94;;;-139.71;70.86
3598;BME280;1813;52.016;8.714;2023-05-21T08:02:34;-16261.94;;;-139.71;70.77
3598;BME280;1813;52.016;8.714;2023-05-21T08:05:08;-16261.94;;;-139.71;69.59
3598;BME280;1813;52.016;8.714;2023-05-21T08:07:43;-16261.94;;;-139.71;69.77
3598;BME280;1813;52.016;8.714;2023-05-21T08:10:19;-16261.94;;;-139.71;69.12
3598;BME280;1813;52.016;8.714;2023-05-21T08:12:55;-16261.94;;;-139.71;69.07
3598;BME280;1813;52.016;8.714;2023-05-21T08:15:29;-16261.94;;;-139.71;69.00
3598;BME280;1813;52.016;8.714;2023-05-21T08:18:03;-16261.94;;;-139.71;68.69
3598;BME280;1813;52.016;8.714;2023-05-21T08:20:38;-16261.94;;;-139.71;67.51
3598;BME280;1813;52.016;8.714;2023-05-21T08:23:12;-16261.94;;;-139.71;67.58
3598;BME280;1813;52.016;8.714;2023-05-21T08:25:55;-16261.94;;;-139.71;67.63
3598;BME280;1813;52.016;8.714;2023-05-21T08:28:29;-16261.94;;;-139.71;67.43
3598;BME280;1813;52.016;8.714;2023-05-21T08:31:05;-16261.94;;;-139.71;66.25
3598;BME280;1813;52.016;8.714;2023-05-21T08:33:49;-16261.94;;;-139.71;66.48
3598;BME280;1813;52.016;8.714;2023-05-21T08:36:27;-16261.94;;;-139.71;67.71
3598;BME280;1813;52.016;8.714;2023-05-21T08:39:06;-16261.94;;;-139.71;67.11
3598;BME280;1813;52.016;8.714;2023-05-21T08:41:47;-16261.94;;;-139.71;66.48
3598;BME280;1813;52.016;8.714;2023-05-21T08:44:24;-16261.94;;;-139.71;65.52
3598;BME280;1813;52.016;8.714;2023-05-21T08:47:01;-16261.94;;;-139.71;65.91
3598;BME280;1813;52.016;8.714;2023-05-21T08:49:36;-16261.94;;;-139.71;64.98
3598;BME280;1813;52.016;8.714;2023-05-21T08:52:12;-16261.94;;;-139.71;64.61
3598;BME280;1813;52.016;8.714;2023-05-21T08:54:48;-16261.94;;;-139.71;63.85
3598;BME280;1813;52.016;8.714;2023-05-21T08:57:26;-16261.94;;;-139.71;64.90
3598;BME280;1813;52.016;8.714;2023-05-21T09:00:02;-16261.94;;;-139.71;66.07
3598;BME280;1813;52.016;8.714;2023-05-21T09:02:39;-16261.94;;;-139.71;66.15
3598;BME280;1813;52.016;8.714;2023-05-21T09:05:14;-16261.94;;;-139.71;64.62
3598;BME280;1813;52.016;8.714;2023-05-21T09:07:54;-16261.94;;;-139.71;64.25
3598;BME280;1813;52.016;8.714;2023-05-21T09:10:44;-16261.94;;;-139.71;65.57
3598;BME280;1813;52.016;8.714;2023-05-21T09:13:23;-16261.94;;;-139.71;65.15
3598;BME280;1813;52.016;8.714;2023-05-21T09:15:58;-16261.94;;;-139.71;64.10
3598;BME280;1813;52.016;8.714;2023-05-21T09:18:32;-16261.94;;;-139.71;64.54
3598;BME280;1813;52.016;8.714;2023-05-21T09:21:25;-16261.94;;;-139.71;64.83
3598;BME280;1813;52.016;8.714;2023-05-21T09:24:14;-16261.94;;;-139.71;65.16
3598;BME280;1813;52.016;8.714;2023-05-21T09:26:48;-16261.94;;;-139.71;65.04
3598;BME280;1813;52.016;8.714;2023-05-21T09:29:27;-16261.94;;;-139.71;64.11
3598;BME280;1813;52.016;8.714;2023-05-21T09:32:05;-16261.94;;;-139.71;62.09
3598;BME280;1813;52.016;8.714;2023-05-21T09:34:43;-16261.94;;;-139.71;60.99
3598;BME280;1813;52.016;8.714;2023-05-21T09:37:18;-16261.94;;;-139.71;60.93
3598;BME280;1813;52.016;8.714;2023-05-21T09:39:52;-16261.94;;;-139.71;60.91
3598;BME280;1813;52.016;8.714;2023-05-21T09:42:28;-16261.94;;;-139.71;61.89
3598;BME280;1813;52.016;8.714;2023-05-21T09:45:07;-16261.94;;;-139.71;60.98
3598;BME280;1813;52.016;8.714;2023-05-21T09:47:42;-16261.94;;;-139.71;60.21
3598;BME280;1813;52.016;8.714;2023-05-21T09:50:18;-16261.94;;;-139.71;60.36
3598;BME280;1813;52.016;8.714;2023-05-21T09:52:53;-16261.94;;;-139.71;60.25
3598;BME280;1813;52.016;8.714;2023-05-21T09:55:28;-16261.94;;;-139.71;59.96
3598;BME280;1813;52.016;8.714;2023-05-21T09:58:02;-16261.94;;;-139.71;59.67
3598;BME280;1813;52.016;8.714;2023-05-21T10:00:38;-16261.94;;;-139.71;59.42
3598;BME280;1813;52.016;8.714;2023-05-21T10:03:13;-16261.94;;;-139.71;60.51
3598;BME280;1813;52.016;8.714;2023-05-21T10:05:51;-16261.94;;;-139.71;58.63
3598;BME280;1813;52.016;8.714;2023-05-21T10:08:27;-16261.94;;;-139.71;58.62
3598;BME280;1813;52.016;8.714;2023-05-21T10:11:02;-16261.94;;;-139.71;58.39
3598;BME280;1813;52.016;8.714;2023-05-21T10:13:39;-16261.94;;;-139.71;57.22
3598;BME280;1813;52.016;8.714;2023-05-21T10:16:18;-16261.94;;;-139.71;56.16
3598;BME280;1813;52.016;8.714;2023-05-21T10:18:53;-16261.94;;;-139.71;55.75
3598;BME280;1813;52.016;8.714;2023-05-21T10:21:27;-16261.94;;;-139.71;55.08
3598;BME280;1813;52.016;8.714;2023-05-21T10:24:03;-16261.94;;;-139.71;54.49
3598;BME280;1813;52.016;8.714;2023-05-21T10:26:38;-16261.94;;;-139.71;54.47
3598;BME280;1813;52.016;8.714;2023-05-21T10:29:14;-16261.94;;;-139.71;53.06
3598;BME280;1813;52.016;8.714;2023-05-21T10:31:51;-16261.94;;;-139.71;53.68
3598;BME280;1813;52.016;8.714;2023-05-21T10:34:27;-16261.94;;;-139.71;52.82
3598;BME280;1813;52.016;8.714;2023-05-21T10:37:03;-16261.94;;;-139.71;52.98
3598;BME280;1813;52.016;8.714;2023-05-21T10:39:42;-16261.94;;;-139.71;53.57
3598;BME280;1813;52.016;8.714;2023-05-21T10:42:23;-16261.94;;;-139.71;54.03
3598;BME280;1813;52.016;8.714;2023-05-21T10:45:08;-16261.94;;;-139.71;53.63
3598;BME280;1813;52.016;8.714;2023-05-21T10:48:07;-16261.94;;;-139.71;54.52
3598;BME280;1813;52.016;8.714;2023-05-21T10:53:58;-16261.94;;;-139.71;52.29
3598;BME280;1813;52.016;8.714;2023-05-21T10:56:40;-16261.94;;;-139.71;53.74
3598;BME280;1813;52.016;8.714;2023-05-21T10:59:19;-16261.94;;;-139.71;52.41
3598;BME280;1813;52.016;8.714;2023-05-21T11:01:58;-16261.94;;;-139.71;52.85
3598;BME280;1813;52.016;8.714;2023-05-21T11:04:35;-16261.94;;;-139.71;53.40
3598;BME280;1813;52.016;8.714;2023-05-21T11:07:11;-16261.94;;;-139.71;52.81
3598;BME280;1813;52.016;8.714;2023-05-21T11:09:45;-16261.94;;;-139.71;53.67
3598;BME280;1813;52.016;8.714;2023-05-21T11:12:22;-16261.94;;;-139.71;52.49
3598;BME280;1813;52.016;8.714;2023-05-21T11:14:57;-16261.94;;;-139.71;54.01
3598;BME280;1813;52.016;8.714;2023-05-21T11:17:38;-16261.94;;;-139.71;53.67
3598;BME280;1813;52.016;8.714;2023-05-21T11:20:19;-16261.94;;;-139.71;52.85
3598;BME280;1813;52.016;8.714;2023-05-21T11:22:56;-16261.94;;;-139.71;52.87
3598;BME280;1813;52.016;8.714;2023-05-21T11:25:30;-16261.94;;;-139.71;50.21
3598;BME280;1813;52.016;8.714;2023-05-21T11:28:05;-16261.94;;;-139.71;50.01
3598;BME280;1813;52.016;8.714;2023-05-21T11:30:39;-16261.94;;;-139.71;50.53
3598;BME280;1813;52.016;8.714;2023-05-21T11:33:19;-16261.94;;;-139.71;49.85
3598;BME280;1813;52.016;8.714;2023-05-21T11:35:59;-16261.94;;;-139.71;51.03
3598;BME280;1813;52.016;8.714;2023-05-21T11:38:33;-16261.94;;;-139.71;50.42
3598;BME280;1813;52.016;8.714;2023-05-21T11:41:08;-16261.94;;;-139.71;50.71
3598;BME280;1813;52.016;8.714;2023-05-21T11:43:43;-16261.94;;;-139.71;51.05
3598;BME280;1813;52.016;8.714;2023-05-21T11:46:18;-16261.94;;;-139.71;51.32
3598;BME280;1813;52.016;8.714;2023-05-21T11:48:52;-16261.94;;;-139.71;52.17
3598;BME280;1813;52.016;8.714;2023-05-21T11:51:29;-16261.94;;;-139.71;51.72
3598;BME280;1813;52.016;8.714;2023-05-21T11:54:03;-16261.94;;;-139.71;53.12
3598;BME280;1813;52.016;8.714;2023-05-21T11:56:38;-16261.94;;;-139.71;52.79
3598;BME280;1813;52.016;8.714;2023-05-21T11:59:13;-16261.94;;;-139.71;51.58
3598;BME280;1813;52.016;8.714;2023-05-21T12:01:47;-16261.94;;;-139.71;51.14
3598;BME280;1813;52.016;8.714;2023-05-21T12:04:21;-16261.94;;;-139.71;51.60
3598;BME280;1813;52.016;8.714;2023-05-21T12:06:58;-16261.94;;;-139.71;51.67
3598;BME280;1813;52.016;8.714;2023-05-21T12:09:37;-16261.94;;;-139.71;52.71
3598;BME280;1813;52.016;8.714;2023-05-21T12:12:13;-16261.94;;;-139.71;51.29
3598;BME280;1813;52.016;8.714;2023-05-21T12:14:49;-16261.94;;;-139.71;51.91
3598;BME280;1813;52.016;8.714;2023-05-21T12:17:24;-16261.94;;;-139.71;50.24
3598;BME280;1813;52.016;8.714;2023-05-21T12:19:58;-16261.94;;;-139.71;50.16
3598;BME280;1813;52.016;8.714;2023-05-21T12:22:34;-16261.94;;;-139.71;50.11
3598;BME280;1813;52.016;8.714;2023-05-21T12:25:12;-16261.94;;;-139.71;50.18
3598;BME280;1813;52.016;8.714;2023-05-21T12:27:49;-16261.94;;;-139.71;50.36
3598;BME280;1813;52.016;8.714;2023-05-21T12:30:27;-16261.94;;;-139.71;51.69
3598;BME280;1813;52.016;8.714;2023-05-21T12:33:01;-16261.94;;;-139.71;50.25
3598;BME280;1813;52.016;8.714;2023-05-21T12:35:37;-16261.94;;;-139.71;51.52
3598;BME280;1813;52.016;8.714;2023-05-21T12:38:13;-16261.94;;;-139.71;51.59
3598;BME280;1813;52.016;8.714;2023-05-21T12:40:47;-16261.94;;;-139.71;50.46
3598;BME280;1813;52.016;8.714;2023-05-21T12:43:21;-16261.94;;;-139.71;50.10
3598;BME280;1813;52.016;8.714;2023-05-21T12:45:55;-16261.94;;;-139.71;48.27
3598;BME280;1813;52.016;8.714;2023-05-21T12:48:29;-16261.94;;;-139.71;46.94
3598;BME280;1813;52.016;8.714;2023-05-21T12:51:03;-16261.94;;;-139.71;48.52
3598;BME280;1813;52.016;8.714;2023-05-21T12:53:40;-16261.94;;;-139.71;50.08
3598;BME280;1813;52.016;8.714;2023-05-21T12:56:14;-16261.94;;;-139.71;50.00
3598;BME280;1813;52.016;8.714;2023-05-21T12:58:49;-16261.94;;;-139.71;49.96
3598;BME280;1813;52.016;8.714;2023-05-21T13:01:23;-16261.94;;;-139.71;48.95
3598;BME280;1813;52.016;8.714;2023-05-21T13:03:57;-16261.94;;;-139.71;50.25
3598;BME280;1813;52.016;8.714;2023-05-21T13:06:40;-16261.94;;;-139.71;51.54
3598;BME280;1813;52.016;8.714;2023-05-21T13:09:17;-16261.94;;;-139.71;49.83
3598;BME280;1813;52.016;8.714;2023-05-21T13:11:50;-16261.94;;;-139.71;49.84
3598;BME280;1813;52.016;8.714;2023-05-21T13:14:24;-16261.94;;;-139.71;51.42
3598;BME280;1813;52.016;8.714;2023-05-21T13:16:58;-16261.94;;;-139.71;50.43
3598;BME280;1813;52.016;8.714;2023-05-21T13:19:33;-16261.94;;;-139.71;52.30
3598;BME280;1813;52.016;8.714;2023-05-21T13:22:07;-16261.94;;;-139.71;51.67
3598;BME280;1813;52.016;8.714;2023-05-21T13:24:43;-16261.94;;;-139.71;51.31
3598;BME280;1813;52.016;8.714;2023-05-21T13:27:17;-16261.94;;;-139.71;53.21
3598;BME280;1813;52.016;8.714;2023-05-21T13:29:51;-16261.94;;;-139.71;51.96
3598;BME280;1813;52.016;8.714;2023-05-21T13:32:25;-16261.94;;;-139.71;51.41
3598;BME280;1813;52.016;8.714;2023-05-21T13:34:59;-16261.94;;;-139.71;51.40
3598;BME280;1813;52.016;8.714;2023-05-21T13:37:33;-16261.94;;;-139.71;51.51
3598;BME280;1813;52.016;8.714;2023-05-21T13:40:13;-16261.94;;;-139.71;51.54